Time;durP1;ratioP1;P1;durP2;ratioP2;P2;SDS_P1;SDS_P2;PMS_P1;PMS_P2;Temp;Humidity;BMP_temperature;BMP_pressure;BME280_temperature;BME280_humidity;BME280_pressure;Samples;Min_cycle;Max_cycle;Signal;HPM_P1;HPM_P2
2024/01/12 00:03:51;;;;;;;18.25;6.72;;;;;;;-2.04;100.00;101226.03;12197156;19;20033;-84
2024/01/12 00:07:53;;;;;;;12.97;6.83;;;;;;;-1.96;100.00;101225.38;12221117;19;20014;-85
2024/01/12 00:11:54;;;;;;;14.87;5.43;;;;;;;-1.98;100.00;101213.84;12221771;19;20367;-84
2024/01/12 00:15:56;;;;;;;17.37;6.53;;;;;;;-2.04;100.00;101223.31;12201284;19;20014;-84
2024/01/12 00:19:58;;;;;;;16.85;6.90;;;;;;;-2.01;100.00;101209.56;12221615;19;20026;-85
2024/01/12 00:24:00;;;;;;;16.65;6.75;;;;;;;-1.88;100.00;101210.16;12223155;19;20031;-85
2024/01/12 00:28:02;;;;;;;13.47;5.30;;;;;;;-1.70;100.00;101223.06;12204471;19;20006;-83
2024/01/12 00:32:07;;;;;;;14.70;6.47;;;;;;;-1.58;100.00;101219.25;12224072;19;20046;-83
2024/01/12 00:36:09;;;;;;;23.50;8.68;;;;;;;-1.43;100.00;101231.44;12225568;19;20032;-84
2024/01/12 00:40:11;;;;;;;11.37;5.63;;;;;;;-1.32;100.00;101232.31;12214459;19;20010;-83
2024/01/12 00:44:13;;;;;;;19.35;6.90;;;;;;;-1.19;100.00;101241.00;12226247;19;20015;-83
2024/01/12 00:48:15;;;;;;;13.10;6.00;;;;;;;-1.08;100.00;101238.19;12230391;19;20067;-84
2024/01/12 00:52:16;;;;;;;14.37;6.47;;;;;;;-0.96;100.00;101231.66;12219439;19;20222;-82
2024/01/12 00:56:18;;;;;;;16.73;6.63;;;;;;;-0.84;100.00;101232.38;12258395;19;20533;-83
2024/01/12 01:00:20;;;;;;;12.87;6.10;;;;;;;-0.74;100.00;101240.53;12234195;19;20015;-82
2024/01/12 01:04:22;;;;;;;15.35;6.22;;;;;;;-0.62;100.00;101239.41;12200402;19;20038;-83
2024/01/12 01:08:24;;;;;;;12.57;4.82;;;;;;;-0.57;100.00;101241.66;12210376;19;20014;-82
2024/01/12 01:12:26;;;;;;;13.60;5.07;;;;;;;-0.53;100.00;101248.53;12210566;19;20006;-83
2024/01/12 01:16:28;;;;;;;13.40;6.35;;;;;;;-0.46;100.00;101255.91;12186819;19;20013;-82
2024/01/12 01:20:33;;;;;;;12.50;5.20;;;;;;;-0.38;100.00;101246.22;12211120;19;20006;-84
2024/01/12 01:24:34;;;;;;;14.52;5.75;;;;;;;-0.31;100.00;101258.19;12215536;19;20467;-83
2024/01/12 01:28:37;;;;;;;13.88;6.05;;;;;;;-0.23;100.00;101266.47;12209299;19;20025;-84
2024/01/12 01:32:38;;;;;;;16.30;7.25;;;;;;;-0.19;100.00;101265.16;12230305;19;20517;-84
2024/01/12 01:36:41;;;;;;;13.77;6.32;;;;;;;-0.15;100.00;101266.59;12224832;19;20010;-84
2024/01/12 01:40:43;;;;;;;16.67;6.37;;;;;;;-0.13;100.00;101272.72;12200642;19;20010;-83
2024/01/12 01:44:45;;;;;;;12.60;5.57;;;;;;;-0.08;100.00;101272.28;12228570;19;20025;-83
2024/01/12 01:48:47;;;;;;;13.40;4.77;;;;;;;-0.03;100.00;101262.72;12197933;19;20007;-84
2024/01/12 01:52:49;;;;;;;13.13;5.88;;;;;;;0.04;100.00;101271.13;12212210;19;20448;-85
2024/01/12 01:56:51;;;;;;;15.33;6.50;;;;;;;-0.01;100.00;101271.53;12211930;19;20398;-83
2024/01/12 02:00:53;;;;;;;15.53;6.73;;;;;;;0.06;100.00;101260.13;12180518;19;20251;-84
2024/01/12 02:04:57;;;;;;;11.50;4.90;;;;;;;0.05;100.00;101258.41;12198178;19;20502;-83
2024/01/12 02:09:00;;;;;;;18.90;6.90;;;;;;;0.01;100.00;101249.75;12204189;19;20031;-85
2024/01/12 02:13:02;;;;;;;14.93;6.38;;;;;;;-0.04;100.00;101250.16;12183427;19;20081;-84
2024/01/12 02:17:04;;;;;;;20.53;8.37;;;;;;;-0.04;100.00;101252.88;12203618;19;20006;-83
2024/01/12 02:21:06;;;;;;;19.97;7.60;;;;;;;-0.08;100.00;101258.75;12202740;19;20354;-86
2024/01/12 02:25:09;;;;;;;20.47;8.03;;;;;;;-0.07;100.00;101255.03;12183473;19;20302;-86
2024/01/12 02:29:11;;;;;;;19.40;8.07;;;;;;;-0.05;100.00;101255.75;12208897;19;20010;-84
2024/01/12 02:33:13;;;;;;;21.75;8.35;;;;;;;-0.06;100.00;101262.13;12205611;19;21060;-83
2024/01/12 02:37:15;;;;;;;17.63;7.50;;;;;;;-0.02;100.00;101255.44;12185896;19;20031;-84
2024/01/12 02:41:16;;;;;;;23.47;9.03;;;;;;;-0.01;100.00;101258.00;12208412;19;20010;-83
2024/01/12 02:45:19;;;;;;;22.67;7.07;;;;;;;0.01;100.00;101260.56;12207028;19;20014;-84
2024/01/12 02:49:21;;;;;;;25.67;9.40;;;;;;;-0.02;100.00;101266.28;12177921;19;20018;-84
2024/01/12 02:53:22;;;;;;;19.73;8.10;;;;;;;0.00;100.00;101261.59;12205420;19;20015;-84
2024/01/12 02:57:25;;;;;;;18.95;7.97;;;;;;;0.00;100.00;101258.88;12211621;19;20541;-84
2024/01/12 03:01:27;;;;;;;22.83;9.37;;;;;;;0.02;100.00;101248.72;12186213;19;20037;-86
2024/01/12 03:05:29;;;;;;;21.33;9.18;;;;;;;0.03;100.00;101249.56;12205045;19;20045;-84
2024/01/12 03:09:32;;;;;;;20.52;9.95;;;;;;;0.07;100.00;101248.31;12211862;19;19998;-84
2024/01/12 03:13:35;;;;;;;24.23;9.93;;;;;;;0.05;100.00;101243.00;12187106;19;20440;-84
2024/01/12 03:17:37;;;;;;;23.27;9.38;;;;;;;0.04;100.00;101237.75;12209588;19;20015;-86
2024/01/12 03:21:40;;;;;;;25.10;9.23;;;;;;;0.01;100.00;101238.91;12243175;19;20023;-86
2024/01/12 03:25:42;;;;;;;16.98;6.57;;;;;;;0.05;100.00;101243.00;12237656;19;20007;-85
2024/01/12 03:29:44;;;;;;;19.10;9.37;;;;;;;0.03;100.00;101241.44;12230719;19;20007;-86
2024/01/12 03:33:46;;;;;;;23.17;9.97;;;;;;;-0.03;100.00;101246.47;12186325;19;20121;-85
2024/01/12 03:37:49;;;;;;;24.60;8.88;;;;;;;0.00;100.00;101245.31;12207942;19;20080;-85
2024/01/12 03:41:51;;;;;;;21.45;9.43;;;;;;;0.03;100.00;101233.31;12205084;19;20003;-86
2024/01/12 03:45:53;;;;;;;20.17;9.30;;;;;;;0.07;100.00;101234.75;12176745;19;20007;-85
2024/01/12 03:49:55;;;;;;;23.02;9.07;;;;;;;0.13;100.00;101234.16;12204631;19;20039;-85
2024/01/12 03:53:56;;;;;;;25.73;10.63;;;;;;;0.19;100.00;101234.41;12204450;19;20034;-85
2024/01/12 03:57:58;;;;;;;23.47;10.03;;;;;;;0.22;100.00;101228.69;12182608;19;20818;-85
2024/01/12 04:02:01;;;;;;;;;;;;;;;0.23;100.00;101235.81;12216843;19;20023;-87
2024/01/12 04:06:08;;;;;;;24.60;9.50;;;;;;;0.25;100.00;101234.84;12209719;19;19911;-86
2024/01/12 04:10:11;;;;;;;17.17;8.98;;;;;;;0.17;100.00;101241.84;12187749;19;20110;-85
2024/01/12 04:14:13;;;;;;;23.20;10.10;;;;;;;0.17;100.00;101246.41;12206880;19;20003;-86
2024/01/12 04:18:15;;;;;;;;;;;;;;;0.20;100.00;101233.41;12207934;19;20030;-85
2024/01/12 04:22:17;;;;;;;23.58;8.80;;;;;;;0.20;100.00;101240.69;12197112;19;19921;-86
2024/01/12 04:26:19;;;;;;;22.53;9.90;;;;;;;0.22;100.00;101249.53;12219205;19;20027;-86
2024/01/12 04:30:21;;;;;;;23.50;10.55;;;;;;;0.29;100.00;101269.63;12217916;19;20002;-84
2024/01/12 04:34:23;;;;;;;24.90;9.20;;;;;;;0.29;100.00;101266.91;12198598;19;20693;-85
2024/01/12 04:38:26;;;;;;;18.85;7.18;;;;;;;0.34;100.00;101264.63;12215548;19;20472;-85
2024/01/12 04:42:28;;;;;;;18.13;7.90;;;;;;;0.40;100.00;101264.03;12213896;19;20011;-86
2024/01/12 04:46:30;;;;;;;22.37;9.07;;;;;;;0.41;100.00;101248.59;12207960;19;20038;-84
2024/01/12 04:50:33;;;;;;;;;;;;;;;0.41;100.00;101245.88;12220126;19;20050;-86
2024/01/12 04:54:35;;;;;;;18.73;7.35;;;;;;;0.43;100.00;101227.63;12222297;19;19915;-85
2024/01/12 04:58:38;;;;;;;10.18;5.30;;;;;;;0.47;100.00;101234.44;12198684;19;20002;-85
2024/01/12 05:02:40;;;;;;;16.02;6.93;;;;;;;0.51;100.00;101243.16;12215759;19;20790;-86
2024/01/12 05:06:43;;;;;;;14.60;6.57;;;;;;;0.50;100.00;101252.28;12214682;19;20035;-86
2024/01/12 05:10:45;;;;;;;19.20;7.82;;;;;;;0.57;100.00;101253.41;12195899;19;20269;-86
2024/01/12 05:14:46;;;;;;;16.17;6.57;;;;;;;0.56;100.00;101251.69;12217439;19;20880;-85
2024/01/12 05:18:48;;;;;;;13.93;6.17;;;;;;;0.55;100.00;101255.41;12193984;19;20033;-85
2024/01/12 05:22:51;;;;;;;9.80;5.20;;;;;;;0.62;100.00;101251.94;12215303;19;20248;-86
2024/01/12 05:26:52;;;;;;;10.97;6.03;;;;;;;0.65;100.00;101246.25;12217238;19;20023;-85
2024/01/12 05:30:55;;;;;;;10.68;4.95;;;;;;;0.70;100.00;101251.19;12192486;19;20484;-85
2024/01/12 05:34:57;;;;;;;10.23;5.33;;;;;;;0.73;100.00;101258.19;12213443;19;20002;-86
2024/01/12 05:39:00;;;;;;;12.85;6.05;;;;;;;0.73;100.00;101253.59;12216420;19;20726;-86
2024/01/12 05:43:02;;;;;;;12.60;6.13;;;;;;;0.76;100.00;101242.44;12191676;19;20018;-85
2024/01/12 05:47:08;;;;;;;11.23;5.38;;;;;;;0.77;100.00;101227.88;12214481;19;20509;-86
2024/01/12 05:51:12;;;;;;;12.97;6.60;;;;;;;0.73;100.00;101214.78;12218649;19;20776;-86
2024/01/12 05:55:15;;;;;;;13.15;6.38;;;;;;;0.76;100.00;101217.19;12193925;19;20010;-85
2024/01/12 05:59:17;;;;;;;10.68;4.70;;;;;;;0.80;100.00;101214.00;12215303;19;20010;-86
2024/01/12 06:03:19;;;;;;;12.98;6.50;;;;;;;0.85;100.00;101210.84;12213831;19;20017;-85
2024/01/12 06:07:21;;;;;;;14.52;6.68;;;;;;;0.85;100.00;101214.41;12191985;19;20011;-85
2024/01/12 06:11:24;;;;;;;15.73;6.70;;;;;;;0.83;100.00;101202.88;12216225;19;20011;-85
2024/01/12 06:15:26;;;;;;;13.70;6.70;;;;;;;0.88;100.00;101203.25;12215201;19;20007;-85
2024/01/12 06:19:28;;;;;;;14.97;6.83;;;;;;;0.90;100.00;101213.97;12192515;19;20070;-85
2024/01/12 06:23:30;;;;;;;15.47;7.43;;;;;;;0.91;100.00;101221.94;12216157;19;20009;-85
2024/01/12 06:27:34;;;;;;;12.88;6.82;;;;;;;0.88;100.00;101233.09;12212154;19;20006;-84
2024/01/12 06:31:36;;;;;;;11.50;6.60;;;;;;;0.84;100.00;101237.13;12194311;19;20006;-84
2024/01/12 06:35:39;;;;;;;12.00;5.43;;;;;;;0.72;100.00;101243.78;12216710;19;20013;-85
2024/01/12 06:39:41;;;;;;;14.15;6.45;;;;;;;0.70;100.00;101244.91;12218273;19;20009;-85
2024/01/12 06:43:43;;;;;;;11.60;5.82;;;;;;;0.74;100.00;101266.16;12191732;19;20014;-84
2024/01/12 06:47:45;;;;;;;12.23;6.28;;;;;;;0.77;100.00;101259.56;12213698;19;20006;-85
2024/01/12 06:51:47;;;;;;;11.80;5.53;;;;;;;0.84;100.00;101272.41;12196921;19;20007;-85
2024/01/12 06:55:49;;;;;;;14.00;7.30;;;;;;;0.84;100.00;101268.84;12221468;19;20015;-86
2024/01/12 06:59:51;;;;;;;16.23;8.07;;;;;;;0.80;100.00;101270.97;12261925;19;20002;-85
2024/01/12 07:03:53;;;;;;;14.27;7.57;;;;;;;0.80;100.00;101270.97;12244784;19;20047;-84
2024/01/12 07:07:56;;;;;;;15.55;5.88;;;;;;;0.85;100.00;101270.53;12241407;19;20006;-85
2024/01/12 07:11:58;;;;;;;11.88;5.60;;;;;;;0.83;100.00;101272.53;12206682;19;20017;-84
2024/01/12 07:15:59;;;;;;;13.47;7.23;;;;;;;0.84;100.00;101269.69;12192412;19;20014;-85
2024/01/12 07:20:02;;;;;;;14.20;7.17;;;;;;;0.86;100.00;101283.09;12209175;19;20689;-85
2024/01/12 07:24:04;;;;;;;16.25;7.32;;;;;;;0.90;100.00;101281.81;12208916;19;20484;-85
2024/01/12 07:28:07;;;;;;;22.00;6.78;;;;;;;0.86;100.00;101281.25;12178670;19;20138;-86
2024/01/12 07:32:09;;;;;;;15.60;6.43;;;;;;;0.89;100.00;101280.06;12204526;19;20489;-85
2024/01/12 07:36:12;;;;;;;12.27;6.90;;;;;;;0.89;100.00;101283.69;12206998;19;20363;-85
2024/01/12 07:40:14;;;;;;;13.88;7.38;;;;;;;0.89;100.00;101294.53;12187442;19;20014;-86
2024/01/12 07:44:16;;;;;;;13.47;6.70;;;;;;;0.94;100.00;101301.34;12219650;19;20364;-86
2024/01/12 07:48:20;;;;;;;12.93;7.45;;;;;;;0.92;100.00;101312.34;12209816;19;20014;-86
2024/01/12 07:52:22;;;;;;;18.55;7.70;;;;;;;0.93;100.00;101308.66;12188613;19;20006;-85
2024/01/12 07:56:24;;;;;;;20.23;7.85;;;;;;;0.94;100.00;101306.78;12220297;19;20011;-85
2024/01/12 08:00:26;;;;;;;16.85;7.05;;;;;;;0.97;100.00;101312.75;12244903;19;20042;-85
2024/01/12 08:04:28;;;;;;;13.10;6.65;;;;;;;0.99;100.00;101310.75;12206589;19;20014;-85
2024/01/12 08:08:30;;;;;;;20.90;8.00;;;;;;;1.00;100.00;101296.16;12235025;19;20010;-86
2024/01/12 08:12:31;;;;;;;18.63;7.90;;;;;;;1.00;100.00;101293.44;12230357;19;20018;-86
2024/01/12 08:16:34;;;;;;;20.85;8.77;;;;;;;1.01;100.00;101310.59;12210751;19;20418;-85
2024/01/12 08:20:36;;;;;;;18.93;8.83;;;;;;;1.02;100.00;101296.88;12229257;19;20006;-85
2024/01/12 08:24:38;;;;;;;21.60;9.27;;;;;;;1.00;100.00;101306.19;12220854;19;20014;-84
2024/01/12 08:28:40;;;;;;;21.67;9.83;;;;;;;1.01;100.00;101306.03;12200609;19;20216;-85
2024/01/12 08:32:41;;;;;;;17.40;9.25;;;;;;;1.00;100.00;101293.44;12228901;19;20271;-86
2024/01/12 08:36:46;;;;;;;20.85;9.65;;;;;;;0.98;100.00;101306.34;12218486;19;20062;-86
2024/01/12 08:40:48;;;;;;;20.13;8.88;;;;;;;0.99;100.00;101301.75;12226870;19;20011;-85
2024/01/12 08:44:50;;;;;;;20.23;9.63;;;;;;;0.97;100.00;101310.03;12229211;19;20014;-85
2024/01/12 08:48:54;;;;;;;22.23;8.83;;;;;;;0.97;100.00;101309.19;12205333;19;20006;-86
2024/01/12 08:52:58;;;;;;;15.90;7.78;;;;;;;1.02;100.00;101317.75;12225500;19;20015;-85
2024/01/12 08:57:00;;;;;;;22.55;9.05;;;;;;;1.02;100.00;101309.59;12226718;19;20089;-85
2024/01/12 09:01:02;;;;;;;20.13;9.93;;;;;;;1.03;100.00;101319.44;12201963;19;20014;-85
2024/01/12 09:05:04;;;;;;;17.67;8.57;;;;;;;1.06;100.00;101311.00;12224499;19;20018;-85
2024/01/12 09:09:07;;;;;;;21.63;9.07;;;;;;;1.05;100.00;101312.00;12225102;19;20006;-85
2024/01/12 09:13:09;;;;;;;;;;;;;;;1.06;100.00;101324.56;12204296;19;20021;-85
2024/01/12 09:17:11;;;;;;;21.10;8.98;;;;;;;1.09;100.00;101319.69;12221638;19;19917;-85
2024/01/12 09:21:15;;;;;;;18.88;8.65;;;;;;;1.13;100.00;101320.22;12218867;19;20113;-85
2024/01/12 09:25:18;;;;;;;22.98;10.10;;;;;;;1.13;100.00;101302.13;12197419;19;20019;-85
2024/01/12 09:29:20;;;;;;;20.90;9.50;;;;;;;1.16;100.00;101321.78;12216850;19;20011;-85
2024/01/12 09:33:21;;;;;;;23.77;9.10;;;;;;;1.23;100.00;101321.06;12220023;19;20002;-85
2024/01/12 09:37:23;;;;;;;15.67;7.13;;;;;;;1.30;100.00;101332.16;12198425;19;20374;-85
2024/01/12 09:41:43;;;;;;;20.13;9.67;;;;;;;1.30;100.00;101337.59;12221273;19;20003;-85
2024/01/12 09:45:46;;;;;;;22.58;10.18;;;;;;;1.32;100.00;101335.59;12214467;19;20010;-85
2024/01/12 09:49:51;;;;;;;22.23;9.68;;;;;;;1.36;100.00;101332.38;12221378;19;20018;-85
2024/01/12 09:53:53;;;;;;;23.88;10.02;;;;;;;1.41;100.00;101333.81;12218041;19;20006;-85
2024/01/12 09:57:56;;;;;;;27.60;9.13;;;;;;;1.42;100.00;101343.66;12200572;19;20070;-86
2024/01/12 10:01:59;;;;;;;30.90;11.18;;;;;;;1.45;100.00;101330.63;12219152;19;20240;-85
2024/01/12 10:06:00;;;;;;;21.70;9.15;;;;;;;1.48;100.00;101327.59;12215602;19;20025;-85
2024/01/12 10:10:03;;;;;;;25.83;10.33;;;;;;;1.47;100.00;101317.75;12193455;19;20033;-85
2024/01/12 10:14:04;;;;;;;23.45;10.23;;;;;;;1.54;100.00;101334.28;12214247;19;20074;-84
2024/01/12 10:18:06;;;;;;;24.30;10.33;;;;;;;1.61;100.00;101319.09;12217564;19;20768;-85
2024/01/12 10:22:14;;;;;;;21.63;10.13;;;;;;;1.68;100.00;101319.31;12195564;19;20083;-85
2024/01/12 10:26:16;;;;;;;22.17;9.73;;;;;;;1.73;100.00;101322.44;12216958;19;20027;-86
2024/01/12 10:30:18;;;;;;;22.60;9.43;;;;;;;1.75;100.00;101323.09;12217733;19;20092;-84
2024/01/12 10:34:21;;;;;;;25.15;9.25;;;;;;;1.79;100.00;101333.53;12192358;19;20055;-85
2024/01/12 10:38:24;;;;;;;23.00;9.40;;;;;;;1.81;100.00;101317.94;12216999;19;20017;-86
2024/01/12 10:42:28;;;;;;;15.82;6.32;;;;;;;1.80;100.00;101313.47;12214217;19;20053;-86
2024/01/12 10:46:33;;;;;;;20.63;8.18;;;;;;;1.86;100.00;101320.16;12193199;19;20014;-85
2024/01/12 10:50:41;;;;;;;18.58;7.75;;;;;;;1.92;100.00;101316.81;12214056;19;20021;-85
2024/01/12 10:55:07;;;;;;;21.25;10.00;;;;;;;1.91;100.00;101315.13;12213520;19;20007;-86
2024/01/12 10:59:09;;;;;;;19.08;7.22;;;;;;;1.93;100.00;101307.63;12191331;19;20010;-86
2024/01/12 11:03:15;;;;;;;19.20;8.50;;;;;;;1.95;100.00;101296.63;12213450;19;20010;-86
2024/01/12 11:07:18;;;;;;;19.05;9.55;;;;;;;1.94;100.00;101303.94;12192635;19;20019;-86
2024/01/12 11:11:22;;;;;;;16.20;7.95;;;;;;;1.95;100.00;101299.34;12212654;19;20380;-85
2024/01/12 11:15:24;;;;;;;20.95;7.85;;;;;;;1.78;100.00;101292.91;12211657;19;20471;-86
2024/01/12 11:19:27;;;;;;;11.85;6.03;;;;;;;1.74;100.00;101288.81;12191097;19;20022;-86
2024/01/12 11:23:38;;;;;;;19.27;7.97;;;;;;;1.70;100.00;101282.81;12211347;19;20027;-86
2024/01/12 11:27:42;;;;;;;22.30;9.13;;;;;;;1.61;100.00;101281.06;12210663;19;20007;-87
2024/01/12 11:31:54;;;;;;;22.70;9.50;;;;;;;1.43;100.00;101288.31;12192331;19;20335;-87
2024/01/12 11:36:01;;;;;;;30.20;10.07;;;;;;;1.40;100.00;101300.38;12213717;19;20007;-85
2024/01/12 11:40:09;;;;;;;26.58;11.18;;;;;;;1.49;100.00;101301.31;12191433;19;20007;-86
2024/01/12 11:44:11;;;;;;;30.55;11.27;;;;;;;1.44;100.00;101281.91;12217956;19;20015;-86
2024/01/12 11:48:17;;;;;;;24.65;10.27;;;;;;;1.40;100.00;101277.75;12213201;19;20468;-86
2024/01/12 11:52:19;;;;;;;26.80;10.95;;;;;;;1.41;100.00;101274.91;12192120;19;20078;-85
2024/01/12 11:56:24;;;;;;;29.20;10.98;;;;;;;1.36;100.00;101263.63;12213883;19;20022;-86
2024/01/12 12:00:26;;;;;;;28.80;10.93;;;;;;;1.29;100.00;101263.41;12216518;19;20011;-86
2024/01/12 12:04:27;;;;;;;28.88;11.15;;;;;;;1.29;100.00;101252.53;12191848;19;20014;-86
2024/01/12 12:08:30;;;;;;;28.47;10.37;;;;;;;1.31;100.00;101255.97;12211822;19;20122;-86
2024/01/12 12:12:32;;;;;;;25.60;9.95;;;;;;;1.34;100.00;101243.94;12212685;19;20015;-86
2024/01/12 12:16:34;;;;;;;28.90;11.10;;;;;;;1.44;100.00;101238.44;12190022;19;20019;-85
2024/01/12 12:20:36;;;;;;;29.73;11.07;;;;;;;1.51;100.00;101221.34;12210930;19;20248;-86
2024/01/12 12:24:38;;;;;;;29.23;10.40;;;;;;;1.56;100.00;101221.72;12208983;19;20275;-86
2024/01/12 12:28:40;;;;;;;27.43;11.33;;;;;;;1.64;100.00;101214.69;12190018;19;20009;-86
2024/01/12 12:32:43;;;;;;;29.67;10.43;;;;;;;1.64;100.00;101206.53;12215628;19;20010;-86
2024/01/12 12:36:46;;;;;;;26.42;9.70;;;;;;;1.63;100.00;101205.66;12206906;19;20006;-86
2024/01/12 12:40:48;;;;;;;27.08;10.40;;;;;;;1.52;100.00;101190.47;12219272;19;20006;-85
2024/01/12 12:44:50;;;;;;;33.33;11.90;;;;;;;1.62;100.00;101193.09;12224020;19;20010;-86
2024/01/12 12:48:54;;;;;;;33.87;11.67;;;;;;;1.73;100.00;101198.28;12200186;19;20026;-86
2024/01/12 12:52:56;;;;;;;30.83;13.18;;;;;;;1.65;100.00;101200.06;12228550;19;20589;-86
2024/01/12 12:57:00;;;;;;;34.22;13.45;;;;;;;1.49;100.00;101190.78;12221572;19;20014;-86
2024/01/12 13:01:02;;;;;;;36.75;14.48;;;;;;;1.49;100.00;101198.94;12201977;19;20014;-86
2024/01/12 13:05:04;;;;;;;40.67;13.80;;;;;;;1.55;100.00;101198.31;12224873;19;20018;-86
2024/01/12 13:09:07;;;;;;;39.17;14.10;;;;;;;1.42;100.00;101199.69;12229747;19;20020;-86
2024/01/12 13:13:08;;;;;;;32.73;14.47;;;;;;;1.38;100.00;101185.59;12246393;19;19999;-85
2024/01/12 13:17:11;;;;;;;41.30;14.65;;;;;;;1.29;100.00;101184.66;12280108;19;20018;-86
2024/01/12 13:21:12;;;;;;;30.00;13.15;;;;;;;1.16;100.00;101192.34;12273190;19;20014;-86
2024/01/12 13:25:15;;;;;;;31.77;13.33;;;;;;;1.11;100.00;101176.50;12195550;19;20026;-86
2024/01/12 13:29:17;;;;;;;;;;;;;;;1.14;100.00;101181.63;12211122;19;20042;-85
2024/01/12 13:33:19;;;;;;;25.98;11.95;;;;;;;1.12;100.00;101177.34;12212877;19;19935;-86
2024/01/12 13:37:21;;;;;;;22.30;10.40;;;;;;;1.08;100.00;101189.56;12191632;19;20115;-86
2024/01/12 13:41:23;;;;;;;24.80;10.73;;;;;;;1.17;100.00;101175.03;12215106;19;20007;-86
2024/01/12 13:45:26;;;;;;;;;;;;;;;1.12;100.00;101171.94;12236023;19;20014;-86
2024/01/12 13:49:28;;;;;;;22.73;9.50;;;;;;;1.11;100.00;101175.66;12203365;19;19914;-85
2024/01/12 13:53:30;;;;;;;28.23;10.00;;;;;;;1.17;100.00;101166.91;12215135;19;20011;-86
2024/01/12 13:57:32;;;;;;;20.30;9.23;;;;;;;1.14;100.00;101175.34;12219433;19;20003;-86
2024/01/12 14:01:34;;;;;;;22.67;9.05;;;;;;;1.05;100.00;101168.16;12195982;19;20023;-87
2024/01/12 14:05:36;;;;;;;20.67;8.88;;;;;;;1.06;100.00;101161.69;12223150;19;20010;-86
2024/01/12 14:09:38;;;;;;;23.13;9.55;;;;;;;1.08;100.00;101151.53;12220583;19;20003;-86
2024/01/12 14:13:40;;;;;;;19.50;8.40;;;;;;;1.21;100.00;101143.84;12196573;19;20019;-86
2024/01/12 14:17:42;;;;;;;24.20;9.87;;;;;;;1.28;100.00;101152.22;12216104;19;20134;-86
2024/01/12 14:21:44;;;;;;;20.55;9.48;;;;;;;1.34;100.00;101157.03;12218935;19;20101;-86
2024/01/12 14:25:47;;;;;;;19.85;8.77;;;;;;;1.36;100.00;101149.56;12195894;19;20011;-86
2024/01/12 14:29:49;;;;;;;16.15;8.15;;;;;;;1.24;100.00;101143.53;12220727;19;20014;-86
2024/01/12 14:33:57;;;;;;;20.67;9.30;;;;;;;1.28;100.00;101160.34;12196644;19;20022;-85
2024/01/12 14:38:00;;;;;;;20.00;9.35;;;;;;;1.32;100.00;101162.63;12221270;19;20010;-86
2024/01/12 14:42:02;;;;;;;23.92;9.27;;;;;;;1.35;100.00;101161.47;12221309;19;20023;-87
2024/01/12 14:46:04;;;;;;;17.00;7.65;;;;;;;1.36;100.00;101160.44;12201526;19;20010;-87
2024/01/12 14:50:06;;;;;;;16.83;7.63;;;;;;;1.28;100.00;101155.81;12242920;19;20010;-87
2024/01/12 14:54:08;;;;;;;13.55;7.07;;;;;;;1.29;100.00;101153.94;12253917;19;20053;-86
2024/01/12 14:58:11;;;;;;;18.80;8.20;;;;;;;1.25;100.00;101161.56;12215280;19;20825;-86
2024/01/12 15:02:13;;;;;;;18.80;8.40;;;;;;;1.23;100.00;101163.56;12213694;19;20010;-87
2024/01/12 15:06:14;;;;;;;16.50;7.43;;;;;;;1.22;100.00;101167.28;12222840;19;20007;-85
2024/01/12 15:10:16;;;;;;;22.63;9.10;;;;;;;1.14;100.00;101164.50;12192294;19;20375;-86
2024/01/12 15:14:18;;;;;;;19.10;8.10;;;;;;;1.02;100.00;101160.31;12215230;19;20009;-86
2024/01/12 15:18:20;;;;;;;29.10;10.23;;;;;;;0.96;100.00;101172.63;12212461;19;20010;-86
2024/01/12 15:22:28;;;;;;;27.75;12.90;;;;;;;0.96;100.00;101171.78;12204286;19;20002;-87
2024/01/12 15:26:30;;;;;;;81.38;30.80;;;;;;;0.84;100.00;101177.44;12231966;19;20013;-86
2024/01/12 15:30:32;;;;;;;33.23;14.17;;;;;;;0.85;100.00;101178.28;12268410;19;20075;-86
2024/01/12 15:34:38;;;;;;;26.33;10.45;;;;;;;0.82;100.00;101175.88;12244782;19;20057;-86
2024/01/12 15:38:40;;;;;;;22.67;8.23;;;;;;;0.75;100.00;101185.63;12262997;19;20034;-86
2024/01/12 15:42:42;;;;;;;22.17;7.97;;;;;;;0.65;100.00;101180.25;12265695;19;20015;-87
2024/01/12 15:46:50;;;;;;;22.02;8.43;;;;;;;0.63;100.00;101179.56;12246941;19;20382;-86
2024/01/12 15:50:52;;;;;;;18.40;8.77;;;;;;;0.61;100.00;101190.56;12262993;19;20019;-86
2024/01/12 15:54:54;;;;;;;18.50;8.00;;;;;;;0.58;100.00;101199.00;12226492;19;20007;-87
2024/01/12 15:58:57;;;;;;;19.17;8.27;;;;;;;0.57;100.00;101201.88;12230057;19;20007;-87
2024/01/12 16:02:59;;;;;;;22.00;8.00;;;;;;;0.55;100.00;101206.59;12224222;19;20023;-86
2024/01/12 16:07:01;;;;;;;21.33;8.30;;;;;;;0.54;100.00;101204.88;12200610;19;20400;-84
2024/01/12 16:11:03;;;;;;;19.17;8.67;;;;;;;0.49;100.00;101207.19;12216543;19;20006;-86
2024/01/12 16:15:07;;;;;;;13.27;6.63;;;;;;;0.65;100.00;101210.09;12221932;19;20015;-85
2024/01/12 16:19:10;;;;;;;16.80;7.72;;;;;;;0.56;100.00;101208.28;12196664;19;20018;-85
2024/01/12 16:23:16;;;;;;;17.58;7.95;;;;;;;0.55;100.00;101204.72;12222638;19;20462;-85
2024/01/12 16:27:18;;;;;;;18.10;8.40;;;;;;;0.63;100.00;101209.41;12213495;19;20112;-84
2024/01/12 16:31:20;;;;;;;17.40;7.83;;;;;;;0.60;100.00;101215.13;12192983;19;20006;-86
2024/01/12 16:35:22;;;;;;;16.60;7.03;;;;;;;0.49;100.00;101207.19;12208744;19;20011;-85
2024/01/12 16:39:23;;;;;;;11.83;5.50;;;;;;;0.40;100.00;101209.78;12219738;19;20346;-86
2024/01/12 16:43:25;;;;;;;13.70;6.33;;;;;;;0.36;100.00;101213.81;12198074;19;20010;-85
2024/01/12 16:47:27;;;;;;;14.30;6.97;;;;;;;0.34;100.00;101210.38;12219868;19;20028;-85
2024/01/12 16:51:29;;;;;;;15.48;6.60;;;;;;;0.33;100.00;101213.28;12216618;19;20011;-84
2024/01/12 16:55:31;;;;;;;14.70;6.70;;;;;;;0.36;100.00;101207.53;12172571;19;20002;-84
2024/01/12 16:59:33;;;;;;;;;;;;;;;0.43;100.00;101214.06;12212571;19;20469;-84
2024/01/12 17:03:35;;;;;;;21.63;8.63;;;;;;;0.50;100.00;101208.88;12209928;19;19918;-85
2024/01/12 17:07:37;;;;;;;20.50;8.43;;;;;;;0.49;100.00;101208.03;12189182;19;20492;-87
2024/01/12 17:11:45;;;;;;;23.60;8.48;;;;;;;0.41;100.00;101216.91;12213627;19;20018;-85
2024/01/12 17:15:47;;;;;;;19.58;8.10;;;;;;;0.36;100.00;101207.53;12193842;19;20010;-85
2024/01/12 17:19:49;;;;;;;21.08;8.55;;;;;;;0.32;100.00;101212.38;12210258;19;20072;-85
2024/01/12 17:23:51;;;;;;;19.23;8.77;;;;;;;0.27;100.00;101217.44;12209746;19;20085;-84
2024/01/12 17:27:53;;;;;;;20.23;9.03;;;;;;;0.34;100.00;101212.25;12200558;19;20252;-85
2024/01/12 17:31:56;;;;;;;20.20;7.97;;;;;;;0.31;100.00;101207.97;12207870;19;20003;-85
2024/01/12 17:35:57;;;;;;;18.88;8.32;;;;;;;0.29;100.00;101206.41;12213968;19;20010;-87
2024/01/12 17:39:59;;;;;;;22.88;9.07;;;;;;;0.38;100.00;101203.66;12195390;19;20006;-86
2024/01/12 17:44:01;;;;;;;27.93;8.97;;;;;;;0.49;100.00;101216.19;12204110;19;20046;-85
2024/01/12 17:48:03;;;;;;;15.30;6.15;;;;;;;0.55;100.00;101214.72;12203786;19;20715;-83
2024/01/12 17:52:05;;;;;;;18.77;7.05;;;;;;;0.60;100.00;101201.56;12158465;19;20601;-82
2024/01/12 17:56:07;;;;;;;22.67;9.25;;;;;;;0.66;100.00;101193.69;12214132;19;20451;-83
2024/01/12 18:00:10;;;;;;;20.70;8.65;;;;;;;0.67;100.00;101197.25;12192388;19;20027;-83
2024/01/12 18:04:12;;;;;;;25.15;8.65;;;;;;;0.66;100.00;101190.97;12209324;19;20114;-81
2024/01/12 18:08:13;;;;;;;23.97;7.67;;;;;;;0.70;100.00;101204.22;12180755;19;20031;-86
2024/01/12 18:12:15;;;;;;;21.20;8.15;;;;;;;0.65;100.00;101201.94;12205072;19;20019;-85
2024/01/12 18:16:17;;;;;;;22.93;8.93;;;;;;;0.65;100.00;101196.53;12187842;19;20007;-85
2024/01/12 18:20:19;;;;;;;24.37;9.47;;;;;;;0.70;100.00;101202.34;12207293;19;20012;-85
2024/01/12 18:24:21;;;;;;;20.23;7.83;;;;;;;0.77;100.00;101178.19;12207766;19;19998;-84